sensor_id;sensor_type;location;lat;lon;timestamp;pressure;altitude;pressure_sealevel;temperature;humidity
23899;BME280;20544;50.018;20.010;2023-04-25T00:00:28;97571.47;;;12.40;100.00
23899;BME280;20544;50.018;20.010;2023-04-25T00:03:46;97566.39;;;12.38;100.00
23899;BME280;20544;50.018;20.010;2023-04-25T00:07:04;97557.52;;;12.44;100.00
23899;BME280;20544;50.018;20.010;2023-04-25T00:10:22;97566.69;;;12.49;100.00
23899;BME280;20544;50.018;20.010;2023-04-25T00:13:39;97569.78;;;12.45;100.00
23899;BME280;20544;50.018;20.010;2023-04-25T00:16:56;97564.92;;;12.42;100.00
23899;BME280;20544;50.018;20.010;2023-04-25T00:20:14;97566.76;;;12.42;100.00
23899;BME280;20544;50.018;20.010;2023-04-25T00:23:31;97573.56;;;12.38;100.00
23899;BME280;20544;50.018;20.010;2023-04-25T00:26:49;97571.56;;;12.33;100.00
23899;BME280;20544;50.018;20.010;2023-04-25T00:30:07;97570.81;;;12.07;100.00
23899;BME280;20544;50.018;20.010;2023-04-25T00:33:27;97579.67;;;12.01;100.00
23899;BME280;20544;50.018;20.010;2023-04-25T00:36:44;97584.84;;;11.96;100.00
23899;BME280;20544;50.018;20.010;2023-04-25T00:40:01;97579.34;;;11.91;100.00
23899;BME280;20544;50.018;20.010;2023-04-25T00:43:17;97579.19;;;11.86;100.00
23899;BME280;20544;50.018;20.010;2023-04-25T00:46:34;97585.38;;;11.79;100.00
23899;BME280;20544;50.018;20.010;2023-04-25T00:49:51;97587.66;;;11.76;100.00
23899;BME280;20544;50.018;20.010;2023-04-25T00:53:08;97589.40;;;11.63;100.00
23899;BME280;20544;50.018;20.010;2023-04-25T00:56:24;97588.64;;;11.56;100.00
23899;BME280;20544;50.018;20.010;2023-04-25T00:59:43;97589.18;;;11.40;100.00
23899;BME280;20544;50.018;20.010;2023-04-25T01:03:01;97591.67;;;11.35;100.00
23899;BME280;20544;50.018;20.010;2023-04-25T01:06:20;97589.24;;;11.33;100.00
23899;BME280;20544;50.018;20.010;2023-04-25T01:09:36;97587.61;;;11.32;100.00
23899;BME280;20544;50.018;20.010;2023-04-25T01:12:54;97591.45;;;11.36;100.00
23899;BME280;20544;50.018;20.010;2023-04-25T01:16:10;97599.41;;;11.36;100.00
23899;BME280;20544;50.018;20.010;2023-04-25T01:19:27;97594.11;;;11.36;100.00
23899;BME280;20544;50.018;20.010;2023-04-25T01:22:44;97602.90;;;11.37;100.00
23899;BME280;20544;50.018;20.010;2023-04-25T01:26:00;97597.98;;;11.40;100.00
23899;BME280;20544;50.018;20.010;2023-04-25T01:29:17;97589.82;;;11.35;100.00
23899;BME280;20544;50.018;20.010;2023-04-25T01:32:34;97599.64;;;11.35;100.00
23899;BME280;20544;50.018;20.010;2023-04-25T01:35:52;97607.98;;;11.38;100.00
23899;BME280;20544;50.018;20.010;2023-04-25T01:39:10;97602.23;;;11.41;100.00
23899;BME280;20544;50.018;20.010;2023-04-25T01:42:26;97603.70;;;11.37;100.00
23899;BME280;20544;50.018;20.010;2023-04-25T01:45:43;97598.23;;;11.32;100.00
23899;BME280;20544;50.018;20.010;2023-04-25T01:49:00;97600.44;;;11.35;100.00
23899;BME280;20544;50.018;20.010;2023-04-25T01:52:17;97596.27;;;11.21;100.00
23899;BME280;20544;50.018;20.010;2023-04-25T01:55:34;97609.09;;;11.24;100.00
23899;BME280;20544;50.018;20.010;2023-04-25T01:58:52;97610.15;;;11.23;100.00
23899;BME280;20544;50.018;20.010;2023-04-25T02:02:27;97611.97;;;11.22;100.00
23899;BME280;20544;50.018;20.010;2023-04-25T02:05:45;97618.85;;;11.30;100.00
23899;BME280;20544;50.018;20.010;2023-04-25T02:09:03;97617.28;;;11.22;100.00
23899;BME280;20544;50.018;20.010;2023-04-25T02:12:21;97612.52;;;11.31;100.00
23899;BME280;20544;50.018;20.010;2023-04-25T02:15:57;97622.34;;;11.30;100.00
23899;BME280;20544;50.018;20.010;2023-04-25T02:19:14;97616.42;;;11.28;100.00
23899;BME280;20544;50.018;20.010;2023-04-25T02:22:30;97627.26;;;11.27;100.00
23899;BME280;20544;50.018;20.010;2023-04-25T02:25:47;97626.19;;;11.35;100.00
23899;BME280;20544;50.018;20.010;2023-04-25T02:29:05;97619.52;;;11.25;100.00
23899;BME280;20544;50.018;20.010;2023-04-25T02:32:21;97626.07;;;11.23;100.00
23899;BME280;20544;50.018;20.010;2023-04-25T02:35:38;97628.28;;;11.26;100.00
23899;BME280;20544;50.018;20.010;2023-04-25T02:38:54;97622.20;;;11.19;100.00
23899;BME280;20544;50.018;20.010;2023-04-25T02:42:10;97625.88;;;11.17;100.00
23899;BME280;20544;50.018;20.010;2023-04-25T02:45:27;97624.85;;;11.19;100.00
23899;BME280;20544;50.018;20.010;2023-04-25T02:48:44;97629.58;;;11.16;100.00
23899;BME280;20544;50.018;20.010;2023-04-25T02:52:00;97620.67;;;11.04;100.00
23899;BME280;20544;50.018;20.010;2023-04-25T02:55:16;97620.01;;;11.09;100.00
23899;BME280;20544;50.018;20.010;2023-04-25T02:58:35;97614.13;;;11.07;100.00
23899;BME280;20544;50.018;20.010;2023-04-25T03:01:52;97611.02;;;11.10;100.00
23899;BME280;20544;50.018;20.010;2023-04-25T03:05:09;97607.98;;;11.06;100.00
23899;BME280;20544;50.018;20.010;2023-04-25T03:08:25;97616.33;;;11.10;100.00
23899;BME280;20544;50.018;20.010;2023-04-25T03:11:43;97610.23;;;11.09;100.00
23899;BME280;20544;50.018;20.010;2023-04-25T03:15:00;97608.20;;;11.05;100.00
23899;BME280;20544;50.018;20.010;2023-04-25T03:18:18;97610.91;;;10.98;100.00
23899;BME280;20544;50.018;20.010;2023-04-25T03:21:35;97606.40;;;10.98;100.00
23899;BME280;20544;50.018;20.010;2023-04-25T03:24:52;97610.97;;;10.84;100.00
23899;BME280;20544;50.018;20.010;2023-04-25T03:28:09;97618.31;;;10.82;100.00
23899;BME280;20544;50.018;20.010;2023-04-25T03:31:25;97620.56;;;10.86;100.00
23899;BME280;20544;50.018;20.010;2023-04-25T03:34:42;97620.13;;;10.89;100.00
23899;BME280;20544;50.018;20.010;2023-04-25T03:37:58;97624.06;;;10.79;100.00
23899;BME280;20544;50.018;20.010;2023-04-25T03:41:16;97623.21;;;10.86;100.00
23899;BME280;20544;50.018;20.010;2023-04-25T03:44:34;97627.50;;;10.87;100.00
23899;BME280;20544;50.018;20.010;2023-04-25T03:47:51;97627.91;;;10.83;100.00
23899;BME280;20544;50.018;20.010;2023-04-25T03:51:08;97636.92;;;10.76;100.00
23899;BME280;20544;50.018;20.010;2023-04-25T03:54:25;97633.91;;;10.65;100.00
23899;BME280;20544;50.018;20.010;2023-04-25T03:57:46;97637.19;;;10.61;100.00
23899;BME280;20544;50.018;20.010;2023-04-25T04:01:02;97652.91;;;10.56;100.00
23899;BME280;20544;50.018;20.010;2023-04-25T04:04:19;97652.30;;;10.54;100.00
23899;BME280;20544;50.018;20.010;2023-04-25T04:07:36;97662.50;;;10.57;100.00
23899;BME280;20544;50.018;20.010;2023-04-25T04:10:53;97661.66;;;10.56;100.00
23899;BME280;20544;50.018;20.010;2023-04-25T04:14:12;97661.27;;;10.52;100.00
23899;BME280;20544;50.018;20.010;2023-04-25T04:17:30;97669.62;;;10.56;100.00
23899;BME280;20544;50.018;20.010;2023-04-25T04:20:48;97667.41;;;10.53;100.00
23899;BME280;20544;50.018;20.010;2023-04-25T04:24:05;97678.84;;;10.47;100.00
23899;BME280;20544;50.018;20.010;2023-04-25T04:27:27;97678.03;;;10.40;100.00
23899;BME280;20544;50.018;20.010;2023-04-25T04:30:48;97677.20;;;10.32;100.00
23899;BME280;20544;50.018;20.010;2023-04-25T04:34:05;97690.23;;;10.34;100.00
23899;BME280;20544;50.018;20.010;2023-04-25T04:37:21;97687.80;;;10.32;100.00
23899;BME280;20544;50.018;20.010;2023-04-25T04:40:39;97694.73;;;10.40;100.00
23899;BME280;20544;50.018;20.010;2023-04-25T04:44:01;97694.73;;;10.40;100.00
23899;BME280;20544;50.018;20.010;2023-04-25T04:47:20;97692.52;;;10.37;100.00
23899;BME280;20544;50.018;20.010;2023-04-25T04:50:40;97706.34;;;10.32;100.00
23899;BME280;20544;50.018;20.010;2023-04-25T04:54:02;97709.81;;;10.26;100.00
23899;BME280;20544;50.018;20.010;2023-04-25T04:57:28;97701.66;;;10.28;100.00
23899;BME280;20544;50.018;20.010;2023-04-25T05:00:52;97699.00;;;10.28;100.00
23899;BME280;20544;50.018;20.010;2023-04-25T05:04:11;97703.69;;;10.32;100.00
23899;BME280;20544;50.018;20.010;2023-04-25T05:07:37;97704.93;;;10.36;100.00
23899;BME280;20544;50.018;20.010;2023-04-25T05:11:10;97705.12;;;10.35;100.00
23899;BME280;20544;50.018;20.010;2023-04-25T05:14:37;97713.27;;;10.27;100.00
23899;BME280;20544;50.018;20.010;2023-04-25T05:18:13;97714.30;;;10.32;100.00
23899;BME280;20544;50.018;20.010;2023-04-25T05:21:51;97718.59;;;10.40;100.00
23899;BME280;20544;50.018;20.010;2023-04-25T05:25:57;97715.93;;;10.33;100.00
23899;BME280;20544;50.018;20.010;2023-04-25T05:29:53;97723.88;;;10.27;100.00
23899;BME280;20544;50.018;20.010;2023-04-25T05:33:18;97723.69;;;10.15;100.00
23899;BME280;20544;50.018;20.010;2023-04-25T05:36:34;97728.99;;;10.15;100.00
23899;BME280;20544;50.018;20.010;2023-04-25T05:39:51;97727.98;;;10.16;100.00
23899;BME280;20544;50.018;20.010;2023-04-25T05:43:12;97737.95;;;10.14;100.00
23899;BME280;20544;50.018;20.010;2023-04-25T05:46:33;97738.98;;;10.19;100.00
23899;BME280;20544;50.018;20.010;2023-04-25T05:50:09;97743.47;;;10.06;100.00
23899;BME280;20544;50.018;20.010;2023-04-25T05:53:39;97748.34;;;9.95;100.00
23899;BME280;20544;50.018;20.010;2023-04-25T05:56:58;97760.38;;;10.04;100.00
23899;BME280;20544;50.018;20.010;2023-04-25T06:00:16;97756.31;;;10.02;100.00
23899;BME280;20544;50.018;20.010;2023-04-25T06:03:33;97764.86;;;9.91;100.00
23899;BME280;20544;50.018;20.010;2023-04-25T06:06:52;97767.48;;;9.84;100.00
23899;BME280;20544;50.018;20.010;2023-04-25T06:10:10;97769.53;;;9.88;100.00
23899;BME280;20544;50.018;20.010;2023-04-25T06:13:27;97774.80;;;9.82;100.00
23899;BME280;20544;50.018;20.010;2023-04-25T06:16:44;97774.63;;;9.83;100.00
23899;BME280;20544;50.018;20.010;2023-04-25T06:20:00;97774.80;;;9.75;100.00
23899;BME280;20544;50.018;20.010;2023-04-25T06:23:19;97784.17;;;9.78;100.00
23899;BME280;20544;50.018;20.010;2023-04-25T06:26:40;97785.19;;;9.77;100.00
23899;BME280;20544;50.018;20.010;2023-04-25T06:29:57;97787.03;;;9.76;100.00
23899;BME280;20544;50.018;20.010;2023-04-25T06:33:13;97782.15;;;9.80;100.00
23899;BME280;20544;50.018;20.010;2023-04-25T06:36:31;97789.05;;;9.74;100.00
23899;BME280;20544;50.018;20.010;2023-04-25T06:39:48;97782.36;;;9.78;100.00
23899;BME280;20544;50.018;20.010;2023-04-25T06:43:04;97788.66;;;9.77;100.00
23899;BME280;20544;50.018;20.010;2023-04-25T06:46:41;97787.48;;;9.93;100.00
23899;BME280;20544;50.018;20.010;2023-04-25T06:49:57;97793.57;;;10.00;100.00
23899;BME280;20544;50.018;20.010;2023-04-25T06:53:14;97786.04;;;10.04;100.00
23899;BME280;20544;50.018;20.010;2023-04-25T06:56:32;97789.73;;;10.10;100.00
23899;BME280;20544;50.018;20.010;2023-04-25T06:59:51;97783.20;;;10.12;100.00
23899;BME280;20544;50.018;20.010;2023-04-25T07:03:09;97785.84;;;10.19;100.00
23899;BME280;20544;50.018;20.010;2023-04-25T07:06:27;97788.30;;;10.27;100.00
23899;BME280;20544;50.018;20.010;2023-04-25T07:09:43;97784.43;;;10.30;100.00
23899;BME280;20544;50.018;20.010;2023-04-25T07:13:00;97785.48;;;10.42;100.00
23899;BME280;20544;50.018;20.010;2023-04-25T07:16:17;97778.33;;;10.43;100.00
23899;BME280;20544;50.018;20.010;2023-04-25T07:19:34;97782.40;;;10.45;100.00
23899;BME280;20544;50.018;20.010;2023-04-25T07:22:54;97775.04;;;10.34;100.00
23899;BME280;20544;50.018;20.010;2023-04-25T07:26:15;97791.58;;;10.43;100.00
23899;BME280;20544;50.018;20.010;2023-04-25T07:29:49;97787.11;;;10.43;100.00
23899;BME280;20544;50.018;20.010;2023-04-25T07:33:06;97793.00;;;10.45;100.00
23899;BME280;20544;50.018;20.010;2023-04-25T07:36:23;97797.89;;;10.55;100.00
23899;BME280;20544;50.018;20.010;2023-04-25T07:39:40;97794.25;;;10.49;100.00
23899;BME280;20544;50.018;20.010;2023-04-25T07:42:57;97787.48;;;10.60;100.00
23899;BME280;20544;50.018;20.010;2023-04-25T07:46:16;97799.72;;;10.61;100.00
23899;BME280;20544;50.018;20.010;2023-04-25T07:49:33;97793.79;;;10.73;100.00
23899;BME280;20544;50.018;20.010;2023-04-25T07:52:49;97792.53;;;10.89;100.00
23899;BME280;20544;50.018;20.010;2023-04-25T07:56:08;97798.70;;;10.76;100.00
23899;BME280;20544;50.018;20.010;2023-04-25T07:59:25;97794.41;;;10.75;100.00
23899;BME280;20544;50.018;20.010;2023-04-25T08:02:42;97798.50;;;10.71;100.00
23899;BME280;20544;50.018;20.010;2023-04-25T08:06:01;97793.58;;;10.81;100.00
23899;BME280;20544;50.018;20.010;2023-04-25T08:09:20;97799.69;;;10.81;100.00
23899;BME280;20544;50.018;20.010;2023-04-25T08:12:38;97799.27;;;10.91;100.00
23899;BME280;20544;50.018;20.010;2023-04-25T08:15:55;97798.46;;;10.91;100.00
23899;BME280;20544;50.018;20.010;2023-04-25T08:19:12;97803.92;;;11.03;100.00
23899;BME280;20544;50.018;20.010;2023-04-25T08:22:30;97803.34;;;10.94;100.00
23899;BME280;20544;50.018;20.010;2023-04-25T08:25:55;97802.74;;;10.85;100.00
23899;BME280;20544;50.018;20.010;2023-04-25T08:29:12;97802.16;;;10.63;100.00
23899;BME280;20544;50.018;20.010;2023-04-25T08:32:28;97804.42;;;10.66;100.00
23899;BME280;20544;50.018;20.010;2023-04-25T08:35:51;97809.94;;;10.64;100.00
23899;BME280;20544;50.018;20.010;2023-04-25T08:39:09;97803.81;;;10.71;100.00
23899;BME280;20544;50.018;20.010;2023-04-25T08:42:28;97812.55;;;10.78;100.00
23899;BME280;20544;50.018;20.010;2023-04-25T08:45:47;97812.95;;;10.81;100.00
23899;BME280;20544;50.018;20.010;2023-04-25T08:49:06;97813.38;;;10.78;100.00
23899;BME280;20544;50.018;20.010;2023-04-25T08:52:25;97809.70;;;10.73;100.00
23899;BME280;20544;50.018;20.010;2023-04-25T08:55:44;97815.42;;;10.83;100.00
23899;BME280;20544;50.018;20.010;2023-04-25T08:59:01;97814.38;;;10.91;100.00
23899;BME280;20544;50.018;20.010;2023-04-25T09:02:18;97816.20;;;10.90;100.00
23899;BME280;20544;50.018;20.010;2023-04-25T09:05:36;97817.27;;;10.76;100.00
23899;BME280;20544;50.018;20.010;2023-04-25T09:08:54;97815.43;;;10.70;100.00
23899;BME280;20544;50.018;20.010;2023-04-25T09:12:11;97829.70;;;10.68;100.00
23899;BME280;20544;50.018;20.010;2023-04-25T09:15:28;97822.17;;;10.65;100.00
23899;BME280;20544;50.018;20.010;2023-04-25T09:18:49;97823.58;;;10.75;100.00
23899;BME280;20544;50.018;20.010;2023-04-25T09:22:07;97822.98;;;10.66;100.00
23899;BME280;20544;50.018;20.010;2023-04-25T09:25:24;97823.99;;;10.65;100.00
23899;BME280;20544;50.018;20.010;2023-04-25T09:28:41;97825.20;;;10.69;100.00
23899;BME280;20544;50.018;20.010;2023-04-25T09:32:14;97832.57;;;10.67;100.00
23899;BME280;20544;50.018;20.010;2023-04-25T09:35:39;97823.80;;;10.60;100.00
23899;BME280;20544;50.018;20.010;2023-04-25T09:39:01;97833.59;;;10.66;100.00
23899;BME280;20544;50.018;20.010;2023-04-25T09:42:20;97825.23;;;10.56;100.00
23899;BME280;20544;50.018;20.010;2023-04-25T09:45:46;97836.25;;;10.46;100.00
23899;BME280;20544;50.018;20.010;2023-04-25T09:49:10;97824.83;;;10.52;100.00
23899;BME280;20544;50.018;20.010;2023-04-25T09:52:28;97828.30;;;10.59;100.00
23899;BME280;20544;50.018;20.010;2023-04-25T09:55:52;97833.98;;;10.63;100.00
23899;BME280;20544;50.018;20.010;2023-04-25T09:59:10;97819.70;;;10.64;100.00
23899;BME280;20544;50.018;20.010;2023-04-25T10:02:28;97827.68;;;10.57;100.00
23899;BME280;20544;50.018;20.010;2023-04-25T10:05:46;97824.42;;;10.62;100.00
23899;BME280;20544;50.018;20.010;2023-04-25T10:09:05;97825.63;;;10.79;100.00
23899;BME280;20544;50.018;20.010;2023-04-25T10:12:23;97822.55;;;10.89;100.00
23899;BME280;20544;50.018;20.010;2023-04-25T10:15:40;97829.68;;;10.95;100.00
23899;BME280;20544;50.018;20.010;2023-04-25T10:18:57;97834.77;;;10.97;100.00
23899;BME280;20544;50.018;20.010;2023-04-25T10:22:17;97833.75;;;10.98;100.00
23899;BME280;20544;50.018;20.010;2023-04-25T10:25:37;97826.20;;;11.02;100.00
23899;BME280;20544;50.018;20.010;2023-04-25T10:29:01;97828.85;;;11.02;100.00
23899;BME280;20544;50.018;20.010;2023-04-25T10:32:18;97823.92;;;11.05;100.00
23899;BME280;20544;50.018;20.010;2023-04-25T10:35:36;97823.70;;;11.13;100.00
23899;BME280;20544;50.018;20.010;2023-04-25T10:38:54;97818.00;;;11.16;100.00
23899;BME280;20544;50.018;20.010;2023-04-25T10:42:20;97819.55;;;11.38;100.00
23899;BME280;20544;50.018;20.010;2023-04-25T10:45:52;97821.51;;;11.56;100.00
23899;BME280;20544;50.018;20.010;2023-04-25T10:49:10;97823.08;;;11.70;100.00
23899;BME280;20544;50.018;20.010;2023-04-25T10:52:29;97815.74;;;11.65;100.00
23899;BME280;20544;50.018;20.010;2023-04-25T10:55:53;97815.91;;;11.71;100.00
23899;BME280;20544;50.018;20.010;2023-04-25T10:59:12;97815.17;;;11.57;100.00
23899;BME280;20544;50.018;20.010;2023-04-25T11:02:31;97816.94;;;11.70;100.00
23899;BME280;20544;50.018;20.010;2023-04-25T11:05:48;97806.88;;;11.78;100.00
23899;BME280;20544;50.018;20.010;2023-04-25T11:09:10;97808.56;;;11.73;100.00
23899;BME280;20544;50.018;20.010;2023-04-25T11:12:29;97803.66;;;11.70;100.00
23899;BME280;20544;50.018;20.010;2023-04-25T11:15:46;97804.09;;;11.67;100.00
23899;BME280;20544;50.018;20.010;2023-04-25T11:19:09;97803.42;;;11.78;100.00
23899;BME280;20544;50.018;20.010;2023-04-25T11:22:26;97803.76;;;11.88;100.00
23899;BME280;20544;50.018;20.010;2023-04-25T11:25:42;97812.30;;;12.04;100.00
23899;BME280;20544;50.018;20.010;2023-04-25T11:29:17;97808.80;;;12.03;100.00
23899;BME280;20544;50.018;20.010;2023-04-25T11:32:44;97804.95;;;11.92;100.00
23899;BME280;20544;50.018;20.010;2023-04-25T11:36:01;97806.20;;;11.90;100.00
23899;BME280;20544;50.018;20.010;2023-04-25T11:39:20;97807.51;;;11.74;100.00
23899;BME280;20544;50.018;20.010;2023-04-25T11:42:38;97808.95;;;11.76;100.00
23899;BME280;20544;50.018;20.010;2023-04-25T11:45:58;97811.97;;;11.80;100.00
23899;BME280;20544;50.018;20.010;2023-04-25T11:49:15;97806.53;;;11.68;100.00
23899;BME280;20544;50.018;20.010;2023-04-25T11:52:41;97808.45;;;11.54;100.00
23899;BME280;20544;50.018;20.010;2023-04-25T11:55:59;97811.51;;;11.51;100.00
23899;BME280;20544;50.018;20.010;2023-04-25T11:59:18;97807.61;;;11.54;100.00
23899;BME280;20544;50.018;20.010;2023-04-25T12:02:42;97812.75;;;11.48;100.00
23899;BME280;20544;50.018;20.010;2023-04-25T12:06:04;97807.61;;;11.54;100.00
23899;BME280;20544;50.018;20.010;2023-04-25T12:09:27;97797.21;;;11.52;100.00
23899;BME280;20544;50.018;20.010;2023-04-25T12:12:46;97801.72;;;11.52;100.00
23899;BME280;20544;50.018;20.010;2023-04-25T12:16:03;97806.38;;;11.56;100.00
23899;BME280;20544;50.018;20.010;2023-04-25T12:19:21;97801.06;;;11.56;100.00
23899;BME280;20544;50.018;20.010;2023-04-25T12:22:39;97805.58;;;11.56;100.00
23899;BME280;20544;50.018;20.010;2023-04-25T12:25:59;97805.18;;;11.52;100.00
23899;BME280;20544;50.018;20.010;2023-04-25T12:29:19;97808.05;;;11.51;100.00
23899;BME280;20544;50.018;20.010;2023-04-25T12:32:39;97807.84;;;11.52;100.00
23899;BME280;20544;50.018;20.010;2023-04-25T12:35:56;97803.37;;;11.46;100.00
23899;BME280;20544;50.018;20.010;2023-04-25T12:39:20;97805.05;;;11.40;100.00
23899;BME280;20544;50.018;20.010;2023-04-25T12:42:38;97809.13;;;11.36;100.00
23899;BME280;20544;50.018;20.010;2023-04-25T12:45:55;97816.06;;;11.37;100.00
23899;BME280;20544;50.018;20.010;2023-04-25T12:49:14;97812.25;;;11.20;100.00
23899;BME280;20544;50.018;20.010;2023-04-25T12:52:34;97808.83;;;10.99;100.00
23899;BME280;20544;50.018;20.010;2023-04-25T12:55:56;97803.17;;;10.82;100.00
23899;BME280;20544;50.018;20.010;2023-04-25T12:59:31;97806.25;;;10.59;100.00
23899;BME280;20544;50.018;20.010;2023-04-25T13:02:51;97804.23;;;10.47;100.00
23899;BME280;20544;50.018;20.010;2023-04-25T13:06:09;97814.21;;;10.59;100.00
23899;BME280;20544;50.018;20.010;2023-04-25T13:09:27;97809.13;;;10.37;100.00
23899;BME280;20544;50.018;20.010;2023-04-25T13:12:44;97807.89;;;10.46;100.00
23899;BME280;20544;50.018;20.010;2023-04-25T13:16:04;97814.20;;;10.32;100.00
23899;BME280;20544;50.018;20.010;2023-04-25T13:19:23;97804.44;;;10.46;100.00
23899;BME280;20544;50.018;20.010;2023-04-25T13:22:41;97815.65;;;10.55;100.00
23899;BME280;20544;50.018;20.010;2023-04-25T13:29:15;97801.38;;;10.56;100.00
23899;BME280;20544;50.018;20.010;2023-04-25T13:32:32;97800.77;;;10.47;100.00
23899;BME280;20544;50.018;20.010;2023-04-25T13:35:52;97803.61;;;10.45;100.00
23899;BME280;20544;50.018;20.010;2023-04-25T13:39:11;97808.31;;;10.43;100.00
23899;BME280;20544;50.018;20.010;2023-04-25T13:42:29;97809.95;;;10.44;100.00
23899;BME280;20544;50.018;20.010;2023-04-25T13:45:48;97818.09;;;10.36;100.00
23899;BME280;20544;50.018;20.010;2023-04-25T13:49:06;97810.97;;;10.43;100.00
23899;BME280;20544;50.018;20.010;2023-04-25T13:52:23;97814.02;;;10.54;100.00
23899;BME280;20544;50.018;20.010;2023-04-25T13:55:40;97813.41;;;10.58;100.00
23899;BME280;20544;50.018;20.010;2023-04-25T13:58:57;97811.95;;;10.69;100.00
23899;BME280;20544;50.018;20.010;2023-04-25T14:02:14;97812.16;;;10.67;100.00
23899;BME280;20544;50.018;20.010;2023-04-25T14:05:30;97808.27;;;10.83;100.00
23899;BME280;20544;50.018;20.010;2023-04-25T14:08:50;97816.84;;;10.86;100.00
23899;BME280;20544;50.018;20.010;2023-04-25T14:12:06;97810.11;;;10.76;100.00
23899;BME280;20544;50.018;20.010;2023-04-25T14:15:23;97805.83;;;10.82;100.00
23899;BME280;20544;50.018;20.010;2023-04-25T14:18:41;97810.30;;;10.81;100.00
23899;BME280;20544;50.018;20.010;2023-04-25T14:21:57;97815.58;;;11.02;100.00
23899;BME280;20544;50.018;20.010;2023-04-25T14:25:15;97814.94;;;11.06;100.00
23899;BME280;20544;50.018;20.010;2023-04-25T14:28:33;97813.48;;;11.17;100.00
23899;BME280;20544;50.018;20.010;2023-04-25T14:31:51;97821.05;;;11.13;100.00
23899;BME280;20544;50.018;20.010;2023-04-25T14:35:09;97825.73;;;11.11;100.00
23899;BME280;20544;50.018;20.010;2023-04-25T14:38:25;97819.63;;;11.11;100.00
23899;BME280;20544;50.018;20.010;2023-04-25T14:41:42;97823.55;;;11.02;100.00
23899;BME280;20544;50.018;20.010;2023-04-25T14:44:59;97827.22;;;11.00;100.00
23899;BME280;20544;50.018;20.010;2023-04-25T14:48:17;97824.61;;;10.80;100.00
23899;BME280;20544;50.018;20.010;2023-04-25T14:51:35;97820.48;;;10.91;100.00
23899;BME280;20544;50.018;20.010;2023-04-25T14:54:52;97816.60;;;10.94;100.00
23899;BME280;20544;50.018;20.010;2023-04-25T14:58:09;97824.75;;;10.99;100.00
23899;BME280;20544;50.018;20.010;2023-04-25T15:01:25;97823.95;;;10.98;100.00
23899;BME280;20544;50.018;20.010;2023-04-25T15:04:42;97819.69;;;10.91;100.00
23899;BME280;20544;50.018;20.010;2023-04-25T15:07:59;97834.17;;;10.81;100.00
23899;BME280;20544;50.018;20.010;2023-04-25T15:11:15;97833.58;;;10.79;100.00
23899;BME280;20544;50.018;20.010;2023-04-25T15:14:32;97827.63;;;10.84;100.00
23899;BME280;20544;50.018;20.010;2023-04-25T15:17:48;97837.23;;;10.85;100.00
23899;BME280;20544;50.018;20.010;2023-04-25T15:21:06;97832.75;;;10.86;100.00
23899;BME280;20544;50.018;20.010;2023-04-25T15:24:23;97836.00;;;10.88;100.00
23899;BME280;20544;50.018;20.010;2023-04-25T15:27:40;97842.75;;;10.83;100.00
23899;BME280;20544;50.018;20.010;2023-04-25T15:30:57;97837.64;;;10.75;100.00
23899;BME280;20544;50.018;20.010;2023-04-25T15:34:13;97839.69;;;10.80;100.00
23899;BME280;20544;50.018;20.010;2023-04-25T15:37:30;97838.24;;;10.84;100.00
23899;BME280;20544;50.018;20.010;2023-04-25T15:40:46;97837.87;;;10.80;100.00
23899;BME280;20544;50.018;20.010;2023-04-25T15:45:38;97838.03;;;10.92;100.00
23899;BME280;20544;50.018;20.010;2023-04-25T15:48:54;97829.87;;;11.00;100.00
23899;BME280;20544;50.018;20.010;2023-04-25T15:52:11;97837.61;;;11.02;100.00
23899;BME280;20544;50.018;20.010;2023-04-25T15:55:30;97828.64;;;11.03;100.00
23899;BME280;20544;50.018;20.010;2023-04-25T15:58:47;97829.04;;;11.07;100.00
23899;BME280;20544;50.018;20.010;2023-04-25T16:02:03;97834.53;;;11.12;100.00
23899;BME280;20544;50.018;20.010;2023-04-25T16:05:21;97828.80;;;11.15;100.00
23899;BME280;20544;50.018;20.010;2023-04-25T16:08:41;97833.09;;;11.16;100.00
23899;BME280;20544;50.018;20.010;2023-04-25T16:11:58;97831.45;;;11.15;100.00
23899;BME280;20544;50.018;20.010;2023-04-25T16:15:17;97830.83;;;11.20;100.00
23899;BME280;20544;50.018;20.010;2023-04-25T16:18:34;97834.31;;;11.13;100.00
23899;BME280;20544;50.018;20.010;2023-04-25T16:21:51;97825.55;;;11.13;100.00
23899;BME280;20544;50.018;20.010;2023-04-25T16:25:08;97825.34;;;11.08;100.00
23899;BME280;20544;50.018;20.010;2023-04-25T16:28:27;97829.41;;;11.17;100.00
23899;BME280;20544;50.018;20.010;2023-04-25T16:31:44;97841.63;;;11.25;100.00
23899;BME280;20544;50.018;20.010;2023-04-25T16:35:00;97840.61;;;11.26;100.00
23899;BME280;20544;50.018;20.010;2023-04-25T16:38:17;97842.06;;;11.22;100.00
23899;BME280;20544;50.018;20.010;2023-04-25T16:41:34;97840.83;;;11.17;100.00
23899;BME280;20544;50.018;20.010;2023-04-25T16:44:53;97840.05;;;11.10;100.00
23899;BME280;20544;50.018;20.010;2023-04-25T16:48:10;97844.16;;;10.99;100.00
23899;BME280;20544;50.018;20.010;2023-04-25T16:51:28;97856.39;;;10.94;100.00
23899;BME280;20544;50.018;20.010;2023-04-25T16:54:45;97857.63;;;10.98;100.00
23899;BME280;20544;50.018;20.010;2023-04-25T16:58:02;97867.23;;;10.86;100.00
23899;BME280;20544;50.018;20.010;2023-04-25T17:01:20;97874.18;;;10.87;100.00
23899;BME280;20544;50.018;20.010;2023-04-25T17:04:40;97868.45;;;10.90;100.00
23899;BME280;20544;50.018;20.010;2023-04-25T17:07:57;97866.83;;;10.82;100.00
23899;BME280;20544;50.018;20.010;2023-04-25T17:11:27;97869.70;;;10.80;100.00